Time;durP1;ratioP1;P1;durP2;ratioP2;P2;SDS_P1;SDS_P2;PMS_P1;PMS_P2;Temp;Humidity;BMP_temperature;BMP_pressure;BME280_temperature;BME280_humidity;BME280_pressure;Samples;Min_cycle;Max_cycle;Signal;HPM_P1;HPM_P2
2023/10/29 00:00:56;;;;;;;3.72;0.50;;;10.80;99.90;;;;;;5013787;28;20096;-64
2023/10/29 00:03:23;;;;;;;1.45;0.40;;;10.90;99.90;;;;;;5013607;28;20069;-62
2023/10/29 00:05:50;;;;;;;2.20;0.32;;;10.70;99.90;;;;;;5013636;28;20050;-62
2023/10/29 00:08:16;;;;;;;3.80;0.57;;;10.90;99.90;;;;;;5013756;28;20050;-62
2023/10/29 00:10:43;;;;;;;2.35;0.60;;;10.80;99.90;;;;;;5013821;28;20057;-62
2023/10/29 00:13:10;;;;;;;1.33;0.40;;;10.70;99.90;;;;;;5013642;28;20049;-51
2023/10/29 00:15:37;;;;;;;1.58;0.40;;;10.80;99.90;;;;;;5013271;28;20490;-50
2023/10/29 00:18:08;;;;;;;2.95;0.50;;;10.80;99.90;;;;;;5013512;28;20434;-57
2023/10/29 00:20:35;;;;;;;2.88;0.65;;;10.90;99.90;;;;;;5013436;28;20046;-56
2023/10/29 00:23:02;;;;;;;3.92;0.70;;;10.80;99.90;;;;;;5013568;28;20042;-56
2023/10/29 00:25:29;;;;;;;2.13;0.70;;;10.60;99.90;;;;;;5013520;28;20045;-56
2023/10/29 00:27:56;;;;;;;2.47;0.57;;;10.70;99.90;;;;;;5013359;28;20117;-55
2023/10/29 00:30:23;;;;;;;3.08;0.60;;;10.50;99.90;;;;;;4995815;28;20046;-54
2023/10/29 00:32:49;;;;;;;4.28;0.80;;;10.50;99.90;;;;;;5013149;28;20046;-53
2023/10/29 00:35:17;;;;;;;2.63;0.75;;;10.60;99.90;;;;;;5013532;28;20096;-56
2023/10/29 00:37:43;;;;;;;4.80;0.82;;;10.60;99.90;;;;;;4992167;28;20448;-55
2023/10/29 00:40:10;;;;;;;3.08;0.70;;;10.50;99.90;;;;;;4993918;28;20109;-54
2023/10/29 00:42:37;;;;;;;1.60;0.60;;;10.60;99.90;;;;;;4993529;28;20189;-55
2023/10/29 00:45:04;;;;;;;3.80;0.88;;;10.50;99.90;;;;;;4992633;28;20138;-55
2023/10/29 00:47:31;;;;;;;2.60;0.75;;;10.60;99.90;;;;;;4993778;28;20081;-55
2023/10/29 00:49:58;;;;;;;2.00;0.60;;;10.60;99.90;;;;;;4993926;28;20469;-56
2023/10/29 00:52:25;;;;;;;1.88;0.47;;;10.50;99.90;;;;;;4993872;28;20431;-53
2023/10/29 00:54:51;;;;;;;3.40;0.77;;;10.40;99.90;;;;;;4993741;28;20077;-62
2023/10/29 00:57:18;;;;;;;5.57;1.00;;;10.60;99.90;;;;;;4993223;28;20042;-63
2023/10/29 00:59:45;;;;;;;2.65;0.68;;;10.40;99.90;;;;;;4993774;28;20105;-63
2023/10/29 01:02:12;;;;;;;2.58;0.50;;;10.40;99.90;;;;;;4993706;28;20047;-55
2023/10/29 01:04:41;;;;;;;4.03;0.80;;;10.40;99.90;;;;;;4992184;28;20058;-56
2023/10/29 01:07:08;;;;;;;3.40;0.75;;;10.40;99.90;;;;;;4992189;28;20046;-53
2023/10/29 01:09:34;;;;;;;6.07;0.65;;;10.30;99.90;;;;;;4993557;28;20476;-54
2023/10/29 01:12:01;;;;;;;3.97;0.70;;;10.40;99.90;;;;;;4993641;28;20121;-52
2023/10/29 01:14:30;;;;;;;2.95;0.60;;;10.30;99.90;;;;;;4992733;28;20116;-54
2023/10/29 01:16:57;;;;;;;2.72;0.70;;;10.40;99.90;;;;;;4992239;28;20042;-56
2023/10/29 01:19:24;;;;;;;3.50;0.82;;;10.30;99.90;;;;;;4993013;28;20062;-53
2023/10/29 01:21:51;;;;;;;2.72;0.80;;;10.30;99.90;;;;;;4993603;28;20345;-55
2023/10/29 01:24:18;;;;;;;3.42;0.70;;;10.40;99.90;;;;;;4992199;28;20101;-62
2023/10/29 01:26:45;;;;;;;2.28;0.68;;;10.40;99.90;;;;;;4995094;28;20034;-63
2023/10/29 01:29:12;;;;;;;3.50;0.60;;;10.30;99.90;;;;;;4997007;28;20051;-63
2023/10/29 01:31:38;;;;;;;5.40;0.80;;;10.40;99.90;;;;;;4996086;28;20061;-63
2023/10/29 01:34:06;;;;;;;1.40;0.60;;;10.20;99.90;;;;;;4996827;28;20045;-62
2023/10/29 01:36:33;;;;;;;3.58;0.90;;;10.30;99.90;;;;;;5000399;28;20060;-63
2023/10/29 01:38:59;;;;;;;5.88;1.00;;;10.20;99.90;;;;;;4998670;28;20050;-64
2023/10/29 01:41:26;;;;;;;6.13;0.90;;;10.30;99.90;;;;;;5016214;28;20042;-63
2023/10/29 01:43:53;;;;;;;3.47;1.00;;;10.20;99.90;;;;;;5016510;28;20390;-63
2023/10/29 01:46:23;;;;;;;6.97;0.75;;;10.10;99.90;;;;;;4998485;28;20125;-64
2023/10/29 01:48:50;;;;;;;5.05;0.70;;;10.20;99.90;;;;;;5016550;28;20554;-53
2023/10/29 01:51:17;;;;;;;8.25;1.20;;;10.10;99.90;;;;;;4998637;28;20408;-55
2023/10/29 01:53:44;;;;;;;4.13;1.08;;;10.10;99.90;;;;;;5016467;28;20077;-57
2023/10/29 01:56:11;;;;;;;4.43;0.98;;;10.00;99.90;;;;;;5015793;28;20132;-55
2023/10/29 01:58:38;;;;;;;6.85;1.10;;;10.10;99.90;;;;;;4998207;28;20048;-58
2023/10/29 02:01:05;;;;;;;6.75;1.10;;;10.00;99.90;;;;;;4982334;28;20060;-53
2023/10/29 02:03:32;;;;;;;5.88;1.13;;;10.00;99.90;;;;;;4998378;28;20104;-56
2023/10/29 02:05:59;;;;;;;6.35;1.60;;;9.90;99.90;;;;;;4998712;28;20108;-55
2023/10/29 02:08:26;;;;;;;6.35;1.15;;;9.90;99.90;;;;;;5015633;28;20049;-58
2023/10/29 02:10:53;;;;;;;7.55;2.00;;;9.90;99.90;;;;;;4998425;28;20042;-63
2023/10/29 02:13:20;;;;;;;7.70;1.42;;;9.80;99.90;;;;;;4998070;28;20490;-63
2023/10/29 02:15:47;;;;;;;6.15;1.20;;;9.90;99.90;;;;;;4997975;28;20513;-63
2023/10/29 02:18:14;;;;;;;4.57;1.27;;;9.80;99.90;;;;;;5018309;28;20077;-64
2023/10/29 02:20:41;;;;;;;6.25;1.00;;;9.80;99.90;;;;;;5035452;28;20037;-63
2023/10/29 02:23:08;;;;;;;8.60;1.10;;;9.80;99.90;;;;;;5035649;28;20072;-63
2023/10/29 02:25:34;;;;;;;8.00;1.25;;;9.80;99.90;;;;;;5035274;28;20049;-63
2023/10/29 02:28:04;;;;;;;6.50;1.30;;;9.80;99.90;;;;;;5035649;28;20046;-63
2023/10/29 02:30:31;;;;;;;9.45;1.27;;;9.80;99.90;;;;;;5035384;28;20045;-56
2023/10/29 02:32:58;;;;;;;4.30;1.13;;;9.70;99.90;;;;;;5035242;28;20065;-54
2023/10/29 02:35:26;;;;;;;8.50;1.10;;;9.70;99.90;;;;;;5017409;28;20429;-56
2023/10/29 02:37:53;;;;;;;7.93;1.25;;;9.60;99.90;;;;;;5033598;28;20447;-55
2023/10/29 02:40:20;;;;;;;10.38;1.83;;;9.70;99.90;;;;;;5017284;28;20069;-54
2023/10/29 02:42:47;;;;;;;9.80;1.25;;;9.60;99.90;;;;;;5016795;28;20109;-56
2023/10/29 02:45:14;;;;;;;9.43;1.58;;;9.70;99.90;;;;;;5035114;28;20056;-55
2023/10/29 02:47:40;;;;;;;4.63;1.17;;;9.50;99.90;;;;;;5001060;28;20142;-54
2023/10/29 02:50:07;;;;;;;8.18;1.23;;;9.50;99.90;;;;;;5016883;28;20037;-62
2023/10/29 02:52:34;;;;;;;13.98;1.83;;;9.60;99.90;;;;;;5017457;28;20124;-63
2023/10/29 02:55:01;;;;;;;7.82;1.58;;;9.70;99.90;;;;;;5017499;28;20064;-63
2023/10/29 02:57:29;;;;;;;8.85;1.63;;;9.50;99.90;;;;;;5034689;28;20049;-61
2023/10/29 02:59:56;;;;;;;8.70;1.42;;;9.60;99.90;;;;;;5034493;28;20064;-61
2023/10/29 03:02:23;;;;;;;10.73;1.83;;;9.60;99.90;;;;;;5016795;28;20041;-54
2023/10/29 03:04:49;;;;;;;6.63;1.58;;;9.60;99.90;;;;;;5034406;28;20103;-61
2023/10/29 03:07:17;;;;;;;8.73;1.48;;;9.80;99.90;;;;;;5034641;28;20573;-62
2023/10/29 03:09:43;;;;;;;10.52;1.20;;;9.70;99.90;;;;;;5034598;28;20053;-62
2023/10/29 03:12:12;;;;;;;6.88;1.23;;;9.80;99.90;;;;;;5016600;28;20572;-62
2023/10/29 03:14:39;;;;;;;9.13;1.60;;;9.80;99.90;;;;;;5034433;28;20033;-63
2023/10/29 03:17:08;;;;;;;7.20;1.10;;;9.90;99.90;;;;;;5033959;28;20504;-62
2023/10/29 03:19:35;;;;;;;7.47;1.20;;;9.80;99.90;;;;;;5034275;28;20053;-62
2023/10/29 03:22:01;;;;;;;5.03;1.30;;;9.90;99.90;;;;;;5034106;28;20095;-63
2023/10/29 03:24:28;;;;;;;4.20;1.00;;;9.80;99.90;;;;;;5016331;28;20038;-63
2023/10/29 03:26:56;;;;;;;7.28;1.20;;;9.80;99.90;;;;;;5034316;28;20140;-63
2023/10/29 03:29:22;;;;;;;8.98;1.30;;;9.80;99.90;;;;;;5034025;28;20099;-62
2023/10/29 03:31:50;;;;;;;5.53;1.27;;;9.80;99.90;;;;;;5016327;28;20421;-63
2023/10/29 03:34:17;;;;;;;7.35;1.20;;;9.80;99.90;;;;;;5033974;28;20124;-63
2023/10/29 03:36:44;;;;;;;6.00;1.10;;;9.80;99.90;;;;;;5033472;28;20498;-63
2023/10/29 03:39:11;;;;;;;4.00;1.17;;;9.80;99.90;;;;;;5033623;28;20475;-63
2023/10/29 03:41:38;;;;;;;5.40;1.10;;;9.80;99.90;;;;;;5034065;28;20124;-63
2023/10/29 03:44:04;;;;;;;5.35;1.50;;;9.80;99.90;;;;;;5033714;28;20056;-63
2023/10/29 03:46:31;;;;;;;2.75;0.90;;;9.70;99.90;;;;;;5015928;28;20053;-63
2023/10/29 03:48:58;;;;;;;4.88;1.40;;;9.70;99.90;;;;;;5033509;28;20129;-63
2023/10/29 03:51:28;;;;;;;5.30;1.27;;;9.70;99.90;;;;;;5033499;28;20053;-64
2023/10/29 03:53:55;;;;;;;8.50;1.05;;;9.50;99.90;;;;;;5016122;28;20045;-64
2023/10/29 03:56:23;;;;;;;5.32;0.80;;;9.40;99.90;;;;;;5033390;28;20046;-64
2023/10/29 03:58:49;;;;;;;5.63;0.95;;;9.40;99.90;;;;;;5033006;28;20128;-62
2023/10/29 04:01:16;;;;;;;3.15;0.85;;;9.40;99.90;;;;;;5033625;28;20044;-63
2023/10/29 04:03:43;;;;;;;5.68;0.88;;;9.20;99.90;;;;;;5033410;28;20141;-64
2023/10/29 04:06:11;;;;;;;7.38;1.20;;;9.20;99.90;;;;;;5033511;28;20037;-63
2023/10/29 04:08:38;;;;;;;5.93;1.00;;;9.20;99.90;;;;;;5033127;28;20037;-64
2023/10/29 04:11:05;;;;;;;5.28;1.05;;;9.20;99.90;;;;;;5033644;28;20402;-64
2023/10/29 04:13:32;;;;;;;6.97;1.10;;;9.20;99.90;;;;;;5033704;28;20046;-64
2023/10/29 04:15:58;;;;;;;3.83;1.00;;;9.10;99.90;;;;;;5015300;28;20383;-64
2023/10/29 04:18:27;;;;;;;4.05;1.05;;;9.10;99.90;;;;;;5033371;28;20481;-64
2023/10/29 04:20:54;;;;;;;8.70;1.17;;;9.10;99.90;;;;;;5033295;28;20118;-64
2023/10/29 04:23:22;;;;;;;4.05;1.00;;;9.10;99.90;;;;;;5033339;28;20482;-64
2023/10/29 04:25:48;;;;;;;6.22;1.30;;;9.00;99.90;;;;;;5033005;28;20044;-64
2023/10/29 04:28:15;;;;;;;6.60;1.40;;;8.90;99.90;;;;;;5032831;28;20544;-64
2023/10/29 04:30:42;;;;;;;7.07;1.27;;;9.00;99.90;;;;;;5033612;28;20041;-63
2023/10/29 04:33:09;;;;;;;7.05;1.17;;;9.00;99.90;;;;;;5033552;28;20041;-63
2023/10/29 04:35:36;;;;;;;6.30;1.27;;;9.00;99.90;;;;;;5033281;28;20073;-64
2023/10/29 04:38:03;;;;;;;9.25;2.08;;;8.90;99.90;;;;;;5033069;28;20063;-64
2023/10/29 04:40:29;;;;;;;6.13;1.45;;;9.00;99.90;;;;;;5032964;28;20045;-64
2023/10/29 04:42:56;;;;;;;5.30;1.45;;;8.90;99.90;;;;;;5032889;28;20041;-64
2023/10/29 04:45:23;;;;;;;7.20;1.45;;;8.90;99.90;;;;;;5032866;28;20040;-64
2023/10/29 04:47:50;;;;;;;4.80;1.00;;;8.90;99.90;;;;;;5032967;28;20048;-63
2023/10/29 04:50:17;;;;;;;6.63;1.25;;;8.90;99.90;;;;;;5032908;28;20046;-64
2023/10/29 04:52:43;;;;;;;8.05;1.27;;;8.90;99.90;;;;;;5015549;28;20057;-63
2023/10/29 04:55:10;;;;;;;8.75;1.65;;;8.80;99.90;;;;;;5032690;28;20037;-63
2023/10/29 04:57:37;;;;;;;10.13;1.38;;;8.90;99.90;;;;;;5032531;28;20041;-64
2023/10/29 05:00:04;;;;;;;6.35;1.20;;;8.80;99.90;;;;;;5015043;28;20049;-64
2023/10/29 05:02:31;;;;;;;9.45;1.48;;;8.90;99.90;;;;;;5018652;28;20382;-63
2023/10/29 05:04:58;;;;;;;10.05;1.58;;;8.80;99.90;;;;;;5037172;28;20046;-63
2023/10/29 05:07:25;;;;;;;12.20;1.40;;;8.90;99.90;;;;;;5036788;28;20053;-58
2023/10/29 05:09:52;;;;;;;6.45;1.00;;;8.90;99.90;;;;;;5036859;28;20553;-58
2023/10/29 05:12:19;;;;;;;8.40;1.13;;;8.90;99.90;;;;;;5036539;28;20106;-57
2023/10/29 05:14:50;;;;;;;8.75;1.38;;;8.80;99.90;;;;;;5019228;28;20120;-57
2023/10/29 05:17:17;;;;;;;9.02;1.42;;;8.90;99.90;;;;;;5036460;28;20034;-54
2023/10/29 05:19:44;;;;;;;4.22;1.13;;;8.80;99.90;;;;;;5018884;28;20466;-58
2023/10/29 05:22:11;;;;;;;9.25;1.27;;;8.80;99.90;;;;;;5018848;28;20236;-58
2023/10/29 05:24:38;;;;;;;6.90;1.30;;;8.70;99.90;;;;;;5036263;28;20037;-55
2023/10/29 05:27:05;;;;;;;8.93;1.45;;;8.80;99.90;;;;;;5036478;28;20428;-56
2023/10/29 05:29:32;;;;;;;8.63;1.60;;;8.80;99.90;;;;;;5036049;28;20055;-56
2023/10/29 05:31:59;;;;;;;13.65;1.50;;;8.80;99.90;;;;;;5036291;28;20475;-58
2023/10/29 05:34:26;;;;;;;7.78;1.55;;;8.80;99.90;;;;;;5036213;28;20124;-58
2023/10/29 05:36:53;;;;;;;11.95;1.88;;;8.80;99.90;;;;;;5035674;28;20056;-56
2023/10/29 05:39:20;;;;;;;6.28;1.40;;;8.80;99.90;;;;;;5035941;28;20124;-58
2023/10/29 05:41:46;;;;;;;10.80;1.38;;;8.70;99.90;;;;;;5036127;28;20055;-58
2023/10/29 05:44:14;;;;;;;7.32;1.50;;;8.70;99.90;;;;;;5035922;28;20061;-58
2023/10/29 05:46:40;;;;;;;11.02;1.77;;;8.80;99.90;;;;;;5035978;28;20036;-57
2023/10/29 05:49:07;;;;;;;12.52;1.85;;;8.70;99.90;;;;;;5035642;28;20371;-58
2023/10/29 05:51:34;;;;;;;9.70;1.52;;;8.80;99.90;;;;;;5035507;28;20112;-57
2023/10/29 05:54:01;;;;;;;8.23;2.05;;;8.70;99.90;;;;;;5035487;28;20052;-57
2023/10/29 05:56:28;;;;;;;12.35;1.63;;;8.80;99.90;;;;;;5035986;28;20483;-54
2023/10/29 05:58:55;;;;;;;13.02;2.20;;;8.80;99.90;;;;;;5035424;28;20057;-55
2023/10/29 06:01:21;;;;;;;15.65;2.03;;;8.80;99.90;;;;;;5035158;28;20438;-54
2023/10/29 06:03:48;;;;;;;10.43;2.15;;;8.90;99.90;;;;;;5035768;28;20459;-55
2023/10/29 06:06:15;;;;;;;11.45;2.15;;;8.90;99.90;;;;;;5035404;28;20136;-58
2023/10/29 06:08:42;;;;;;;9.93;1.45;;;8.90;99.90;;;;;;5035524;28;20041;-54
2023/10/29 06:11:10;;;;;;;9.05;1.60;;;8.90;99.90;;;;;;5035265;28;20124;-58
2023/10/29 06:13:37;;;;;;;17.40;1.85;;;8.90;99.90;;;;;;5035258;28;20037;-54
2023/10/29 06:16:03;;;;;;;15.63;2.10;;;8.90;99.90;;;;;;5035391;28;20548;-57
2023/10/29 06:18:30;;;;;;;16.02;1.88;;;8.90;99.90;;;;;;5035166;28;20037;-55
2023/10/29 06:20:58;;;;;;;12.40;2.03;;;9.00;99.90;;;;;;5035117;28;20103;-56
2023/10/29 06:23:26;;;;;;;16.98;1.98;;;9.00;99.90;;;;;;5035844;28;20159;-55
2023/10/29 06:25:52;;;;;;;15.10;1.50;;;9.00;99.90;;;;;;5035095;28;20041;-58
2023/10/29 06:28:19;;;;;;;12.85;1.90;;;8.90;99.90;;;;;;5035324;28;20493;-58
2023/10/29 06:30:46;;;;;;;15.60;1.75;;;9.00;99.90;;;;;;5035368;28;20042;-56
2023/10/29 06:33:13;;;;;;;12.13;1.88;;;9.00;99.90;;;;;;5035084;28;20065;-57
2023/10/29 06:35:40;;;;;;;10.95;1.38;;;9.00;99.90;;;;;;5034978;28;20076;-57
2023/10/29 06:38:07;;;;;;;14.95;2.20;;;9.10;99.90;;;;;;5034738;28;20501;-58
2023/10/29 06:40:34;;;;;;;18.48;2.58;;;9.00;99.90;;;;;;5035078;28;20042;-63
2023/10/29 06:43:01;;;;;;;11.25;1.38;;;9.00;99.90;;;;;;5035150;28;20215;-63
2023/10/29 06:45:28;;;;;;;11.93;1.63;;;9.00;99.90;;;;;;5034812;28;20041;-64
2023/10/29 06:47:55;;;;;;;14.23;2.25;;;9.00;99.90;;;;;;5035113;28;20366;-63
2023/10/29 06:50:22;;;;;;;15.35;1.80;;;9.00;99.90;;;;;;5035026;28;20046;-63
2023/10/29 06:52:49;;;;;;;13.73;1.90;;;9.00;99.90;;;;;;5034824;28;20052;-63
2023/10/29 06:55:16;;;;;;;14.23;2.03;;;9.00;99.90;;;;;;5034696;28;20058;-63
2023/10/29 06:57:42;;;;;;;10.95;1.92;;;9.00;99.90;;;;;;5034736;28;20056;-63
2023/10/29 07:00:09;;;;;;;10.93;2.35;;;9.00;99.90;;;;;;5034682;28;20041;-64
2023/10/29 07:02:36;;;;;;;19.10;2.40;;;9.10;99.90;;;;;;5017054;28;20042;-63
2023/10/29 07:05:03;;;;;;;13.48;2.00;;;9.10;99.90;;;;;;5034562;28;20409;-63
2023/10/29 07:07:30;;;;;;;11.27;1.60;;;9.10;99.90;;;;;;5034346;28;20038;-63
2023/10/29 07:09:57;;;;;;;11.80;1.52;;;9.10;99.90;;;;;;5034284;28;20112;-63
2023/10/29 07:12:24;;;;;;;13.27;1.90;;;9.10;99.90;;;;;;5034502;28;20060;-63
2023/10/29 07:14:50;;;;;;;9.57;1.52;;;9.10;99.90;;;;;;5034078;28;20047;-63
2023/10/29 07:17:17;;;;;;;13.48;1.85;;;9.10;99.90;;;;;;5033817;28;20111;-63
2023/10/29 07:19:45;;;;;;;13.90;1.95;;;9.10;99.90;;;;;;5034318;28;20124;-63
2023/10/29 07:22:11;;;;;;;9.05;2.03;;;9.10;99.90;;;;;;5034136;28;20095;-63
2023/10/29 07:24:38;;;;;;;10.70;1.30;;;9.10;99.90;;;;;;5033188;28;20063;-63
2023/10/29 07:27:05;;;;;;;8.52;1.35;;;9.10;99.90;;;;;;5034452;28;20048;-63
2023/10/29 07:29:32;;;;;;;10.23;1.63;;;9.10;99.90;;;;;;5033904;28;20057;-63
2023/10/29 07:31:59;;;;;;;13.82;2.30;;;9.10;99.90;;;;;;5016144;28;20045;-63
2023/10/29 07:34:25;;;;;;;11.35;1.60;;;9.20;99.90;;;;;;5034056;28;20069;-63
2023/10/29 07:36:52;;;;;;;15.02;2.03;;;9.20;99.90;;;;;;5033747;28;20049;-63
2023/10/29 07:39:19;;;;;;;14.55;1.75;;;9.20;99.90;;;;;;5033794;28;20049;-63
2023/10/29 07:41:46;;;;;;;13.43;1.88;;;9.20;99.90;;;;;;5033863;28;20048;-63
2023/10/29 07:44:14;;;;;;;13.07;1.92;;;9.20;99.90;;;;;;5015975;28;20052;-63
2023/10/29 07:46:40;;;;;;;12.38;1.75;;;9.20;99.90;;;;;;5033735;28;20052;-63
2023/10/29 07:49:07;;;;;;;8.75;2.10;;;9.30;99.90;;;;;;5033271;28;20049;-62
2023/10/29 07:51:34;;;;;;;12.20;2.28;;;9.30;99.90;;;;;;5033949;28;20363;-63
2023/10/29 07:54:01;;;;;;;9.95;1.80;;;9.30;99.90;;;;;;5034140;28;20052;-63
2023/10/29 07:56:27;;;;;;;17.20;2.20;;;9.30;99.90;;;;;;5033349;28;20073;-63
2023/10/29 07:58:55;;;;;;;14.00;1.60;;;9.30;99.90;;;;;;5015910;28;20033;-64
2023/10/29 08:01:22;;;;;;;11.32;1.70;;;9.30;99.90;;;;;;5033386;28;20041;-63
2023/10/29 08:03:50;;;;;;;11.65;1.80;;;9.30;99.90;;;;;;5033388;28;20045;-63
2023/10/29 08:06:17;;;;;;;16.15;2.35;;;9.40;99.90;;;;;;5033828;28;20462;-63
2023/10/29 08:08:44;;;;;;;16.88;2.10;;;9.40;99.90;;;;;;5033144;28;20466;-62
2023/10/29 08:11:10;;;;;;;14.52;2.05;;;9.50;99.90;;;;;;5033623;28;20047;-63
2023/10/29 08:13:37;;;;;;;14.93;2.30;;;9.60;99.90;;;;;;5033690;28;20041;-62
2023/10/29 08:16:04;;;;;;;13.95;1.98;;;9.70;99.90;;;;;;5033527;28;20052;-63
2023/10/29 08:18:31;;;;;;;16.90;2.53;;;9.70;99.90;;;;;;5033629;28;20172;-63
2023/10/29 08:20:58;;;;;;;18.27;2.13;;;9.70;99.90;;;;;;5033099;28;20124;-63
2023/10/29 08:23:24;;;;;;;12.73;1.90;;;9.70;99.90;;;;;;5033178;28;20041;-63
2023/10/29 08:25:52;;;;;;;10.85;2.13;;;9.70;99.90;;;;;;5033330;28;20044;-63
2023/10/29 08:28:19;;;;;;;12.57;2.13;;;9.80;99.90;;;;;;5033171;28;20423;-63
2023/10/29 08:30:46;;;;;;;12.13;1.92;;;9.80;99.90;;;;;;5015694;28;20088;-63
2023/10/29 08:33:13;;;;;;;11.85;2.20;;;9.80;99.90;;;;;;5033115;28;20056;-63
2023/10/29 08:35:40;;;;;;;12.90;2.05;;;9.80;99.90;;;;;;5035540;28;20128;-63
2023/10/29 08:38:07;;;;;;;18.20;2.20;;;9.80;99.90;;;;;;5036873;28;20057;-63
2023/10/29 08:40:33;;;;;;;13.90;1.80;;;9.90;99.90;;;;;;5037389;28;20041;-62
2023/10/29 08:43:00;;;;;;;11.55;1.85;;;9.80;99.90;;;;;;5036953;28;20057;-62
2023/10/29 08:45:27;;;;;;;13.82;2.20;;;9.80;99.90;;;;;;5037364;28;20051;-62
2023/10/29 08:48:07;;;;;;;17.55;2.95;;;9.90;99.90;;;;;;5036889;28;20461;-62
2023/10/29 08:50:34;;;;;;;14.95;2.35;;;9.90;99.90;;;;;;5037373;28;20072;-61
2023/10/29 08:53:01;;;;;;;16.52;1.77;;;9.90;99.90;;;;;;5037510;28;20065;-62
2023/10/29 08:55:28;;;;;;;15.32;2.10;;;9.90;99.90;;;;;;5037205;28;20506;-63
2023/10/29 08:57:55;;;;;;;16.73;2.63;;;10.00;99.90;;;;;;5036869;28;20077;-62
2023/10/29 09:00:22;;;;;;;9.15;1.98;;;10.10;99.90;;;;;;5036576;28;20107;-62
2023/10/29 09:02:49;;;;;;;16.13;2.47;;;10.20;99.90;;;;;;5037497;28;20073;-63
2023/10/29 09:05:16;;;;;;;13.35;2.13;;;10.30;99.90;;;;;;5036912;28;20046;-62
2023/10/29 09:07:43;;;;;;;11.73;2.63;;;10.40;99.90;;;;;;5036618;28;20049;-62
2023/10/29 09:10:10;;;;;;;13.65;2.63;;;10.40;99.90;;;;;;5036673;28;20042;-63
2023/10/29 09:12:37;;;;;;;11.20;2.20;;;10.40;99.90;;;;;;5036841;28;20056;-63
2023/10/29 09:15:03;;;;;;;11.45;1.88;;;10.50;99.90;;;;;;5036585;28;20041;-63
2023/10/29 09:17:30;;;;;;;11.75;2.28;;;10.40;99.90;;;;;;5036676;28;20471;-63
2023/10/29 09:19:57;;;;;;;15.32;2.00;;;10.50;99.90;;;;;;5036449;28;20041;-62
2023/10/29 09:22:24;;;;;;;18.10;2.40;;;10.50;99.90;;;;;;5036511;28;20089;-57
2023/10/29 09:24:51;;;;;;;10.98;1.92;;;10.60;99.90;;;;;;5036295;28;20046;-63
2023/10/29 09:27:17;;;;;;;11.98;2.50;;;10.70;99.90;;;;;;5036163;28;20038;-64
2023/10/29 09:29:44;;;;;;;13.02;2.00;;;10.70;99.90;;;;;;5036443;28;20182;-62
2023/10/29 09:32:13;;;;;;;16.80;2.50;;;10.80;99.90;;;;;;5036360;28;20099;-55
2023/10/29 09:34:40;;;;;;;10.95;2.15;;;10.90;99.90;;;;;;5018304;28;20505;-56
2023/10/29 09:37:08;;;;;;;15.77;2.42;;;10.90;99.90;;;;;;5036330;28;20084;-58
2023/10/29 09:39:35;;;;;;;12.60;2.40;;;10.90;99.90;;;;;;5036132;28;20493;-58
2023/10/29 09:42:08;;;;;;;15.63;3.45;;;11.00;99.90;;;;;;5036147;28;20045;-54
2023/10/29 09:44:35;;;;;;;18.45;3.17;;;11.10;99.90;;;;;;5036019;28;20051;-57
2023/10/29 09:47:02;;;;;;;24.02;2.63;;;11.10;99.90;;;;;;5035523;28;20038;-56
2023/10/29 09:49:29;;;;;;;17.58;4.07;;;11.20;99.90;;;;;;5036045;28;20033;-58
2023/10/29 09:51:55;;;;;;;14.90;3.03;;;11.30;99.90;;;;;;5035954;28;20111;-59
2023/10/29 09:54:22;;;;;;;14.35;3.35;;;11.30;99.90;;;;;;5036079;28;20045;-58
2023/10/29 09:56:50;;;;;;;23.83;3.22;;;11.40;99.90;;;;;;5035824;28;20045;-59
2023/10/29 09:59:17;;;;;;;12.43;2.05;;;11.40;99.90;;;;;;5035781;28;20051;-57
2023/10/29 10:01:43;;;;;;;13.80;3.60;;;11.50;99.90;;;;;;5018653;28;20045;-58
2023/10/29 10:04:23;;;;;;;13.70;3.10;;;11.50;99.90;;;;;;5035567;28;20072;-58
2023/10/29 10:06:50;;;;;;;18.27;3.13;;;11.40;99.90;;;;;;5035933;28;20033;-57
2023/10/29 10:09:17;;;;;;;20.23;3.20;;;11.50;99.90;;;;;;5035498;28;20049;-54
2023/10/29 10:11:44;;;;;;;17.92;3.10;;;11.50;99.90;;;;;;5035857;28;20041;-56
2023/10/29 10:14:10;;;;;;;17.08;3.10;;;11.60;99.90;;;;;;5035573;28;20045;-57
2023/10/29 10:16:37;;;;;;;17.17;2.90;;;11.60;99.90;;;;;;5018178;28;20516;-56
2023/10/29 10:19:04;;;;;;;14.80;3.00;;;11.60;99.90;;;;;;5035479;28;20113;-57
2023/10/29 10:21:31;;;;;;;13.63;3.00;;;11.70;99.90;;;;;;5035742;28;20037;-55
2023/10/29 10:23:58;;;;;;;17.35;2.55;;;11.70;99.90;;;;;;5035621;28;20041;-57
2023/10/29 10:26:25;;;;;;;13.27;2.55;;;11.80;99.90;;;;;;5035723;28;20133;-54
2023/10/29 10:28:51;;;;;;;19.50;3.20;;;11.80;99.90;;;;;;5035100;28;20045;-55
2023/10/29 10:31:18;;;;;;;16.98;2.80;;;11.80;99.90;;;;;;5035167;28;20045;-57
2023/10/29 10:33:45;;;;;;;22.02;3.45;;;11.80;99.90;;;;;;5034983;28;20482;-55
2023/10/29 10:36:12;;;;;;;9.65;2.20;;;11.80;99.90;;;;;;5034883;28;20474;-57
2023/10/29 10:38:41;;;;;;;7.93;1.80;;;11.70;99.90;;;;;;5034984;28;20355;-61
2023/10/29 10:41:08;;;;;;;10.65;1.75;;;11.50;99.90;;;;;;5034886;28;20045;-62
2023/10/29 10:43:35;;;;;;;13.93;1.90;;;11.40;99.90;;;;;;5034796;28;20044;-61
2023/10/29 10:46:01;;;;;;;10.30;2.30;;;11.40;99.90;;;;;;5034436;28;20040;-62
2023/10/29 10:48:28;;;;;;;10.43;1.88;;;11.30;99.90;;;;;;5035055;28;20046;-62
2023/10/29 10:50:55;;;;;;;7.15;1.83;;;11.30;99.90;;;;;;5034906;28;20111;-61
2023/10/29 10:53:22;;;;;;;10.15;1.98;;;11.30;99.90;;;;;;5034718;28;20374;-62
2023/10/29 10:55:49;;;;;;;11.43;2.25;;;11.20;99.90;;;;;;5034589;28;20091;-61
2023/10/29 10:58:29;;;;;;;8.50;1.95;;;11.10;99.90;;;;;;5033574;28;20487;-62
2023/10/29 11:00:56;;;;;;;12.10;1.88;;;11.10;99.90;;;;;;5034557;28;20042;-62
2023/10/29 11:03:22;;;;;;;7.75;1.50;;;11.10;99.90;;;;;;5034578;28;20065;-62
2023/10/29 11:05:58;;;;;;;8.95;1.40;;;11.00;99.90;;;;;;5034679;28;20038;-56
2023/10/29 11:08:26;;;;;;;9.65;1.70;;;10.90;99.90;;;;;;5016717;28;20037;-55
2023/10/29 11:10:57;;;;;;;8.63;1.52;;;10.80;99.90;;;;;;5034306;28;20513;-55
2023/10/29 11:13:26;;;;;;;5.72;1.38;;;10.70;99.90;;;;;;5034548;28;20068;-58
2023/10/29 11:15:53;;;;;;;8.38;1.42;;;10.70;99.90;;;;;;5034354;28;20434;-55
2023/10/29 11:18:20;;;;;;;8.57;1.45;;;10.70;99.90;;;;;;5034041;28;20108;-55
2023/10/29 11:20:47;;;;;;;6.95;1.50;;;10.70;99.90;;;;;;5034079;28;20360;-52
2023/10/29 11:23:14;;;;;;;8.48;1.70;;;10.70;99.90;;;;;;5016758;28;20418;-54
2023/10/29 11:25:41;;;;;;;8.77;1.60;;;10.70;99.90;;;;;;5034252;28;20406;-51
2023/10/29 11:28:08;;;;;;;8.88;1.80;;;10.70;99.90;;;;;;5034001;28;20465;-55
2023/10/29 11:30:34;;;;;;;8.95;1.75;;;10.70;99.90;;;;;;5033895;28;20087;-56
2023/10/29 11:33:01;;;;;;;7.80;2.00;;;10.80;99.90;;;;;;5033918;28;20041;-55
2023/10/29 11:35:29;;;;;;;8.07;1.65;;;10.80;99.90;;;;;;5033795;28;20466;-55
2023/10/29 11:37:57;;;;;;;7.65;1.60;;;10.80;99.90;;;;;;5033904;28;20050;-54
2023/10/29 11:40:24;;;;;;;7.40;1.80;;;10.70;99.90;;;;;;5016521;28;20056;-53
2023/10/29 11:42:51;;;;;;;8.73;1.52;;;10.80;99.90;;;;;;5033715;28;20540;-54
2023/10/29 11:45:17;;;;;;;10.73;1.98;;;10.80;99.90;;;;;;5033733;28;20041;-55
2023/10/29 11:47:44;;;;;;;7.72;1.55;;;10.80;99.90;;;;;;5034082;28;20084;-54
2023/10/29 11:50:11;;;;;;;9.07;1.77;;;10.90;99.90;;;;;;5033498;28;20069;-54
2023/10/29 11:52:38;;;;;;;8.18;1.80;;;10.90;99.90;;;;;;5033428;28;20059;-55
2023/10/29 11:55:05;;;;;;;7.15;1.35;;;11.00;99.90;;;;;;5014295;28;20042;-54
2023/10/29 11:57:32;;;;;;;7.65;1.70;;;11.10;99.90;;;;;;5013141;28;20076;-54
2023/10/29 11:59:59;;;;;;;11.55;2.63;;;11.10;99.90;;;;;;5013508;28;20498;-52
2023/10/29 12:02:26;;;;;;;6.68;1.40;;;11.10;99.90;;;;;;5013027;28;20045;-50
2023/10/29 12:04:53;;;;;;;7.72;1.42;;;11.20;99.90;;;;;;5013424;28;20045;-50
2023/10/29 12:07:20;;;;;;;7.45;1.77;;;11.30;99.90;;;;;;5012970;28;20038;-52
2023/10/29 12:09:46;;;;;;;6.63;1.88;;;11.30;99.90;;;;;;5013387;28;20148;-50
2023/10/29 12:12:13;;;;;;;13.10;2.67;;;11.40;99.90;;;;;;5013432;28;20108;-50
2023/10/29 12:14:40;;;;;;;8.40;1.48;;;11.40;99.90;;;;;;5013208;28;20050;-49
2023/10/29 12:17:07;;;;;;;7.40;1.35;;;11.40;99.90;;;;;;5012729;28;20042;-50
2023/10/29 12:19:35;;;;;;;8.75;1.60;;;11.40;99.90;;;;;;5013121;28;20046;-56
2023/10/29 12:22:03;;;;;;;8.32;1.30;;;11.40;99.90;;;;;;5012597;28;20063;-51
2023/10/29 12:24:30;;;;;;;5.32;1.48;;;11.50;99.90;;;;;;4995476;28;20038;-50
2023/10/29 12:26:56;;;;;;;6.70;1.30;;;11.50;99.90;;;;;;5013244;28;20038;-52
2023/10/29 12:29:23;;;;;;;6.85;1.65;;;11.60;99.90;;;;;;5010566;28;20371;-50
2023/10/29 12:31:50;;;;;;;6.05;1.23;;;11.70;99.90;;;;;;5013080;28;20133;-50
2023/10/29 12:34:17;;;;;;;7.00;0.95;;;11.80;99.90;;;;;;5012736;28;20537;-52
2023/10/29 12:36:44;;;;;;;5.50;1.00;;;11.90;99.90;;;;;;4995173;28;20141;-52
2023/10/29 12:39:11;;;;;;;4.53;1.20;;;12.00;99.90;;;;;;5013080;28;20414;-53
2023/10/29 12:41:38;;;;;;;5.40;1.05;;;12.00;99.90;;;;;;5012638;28;20046;-54
2023/10/29 12:44:04;;;;;;;7.35;1.33;;;12.10;99.90;;;;;;5012607;28;20044;-53
2023/10/29 12:46:31;;;;;;;8.15;1.45;;;12.10;99.90;;;;;;5012623;28;20080;-51